Time;durP1;ratioP1;P1;durP2;ratioP2;P2;SDS_P1;SDS_P2;PMS_P1;PMS_P2;Temp;Humidity;BMP_temperature;BMP_pressure;BME280_temperature;BME280_humidity;BME280_pressure;Samples;Min_cycle;Max_cycle;Signal;HPM_P1;HPM_P2
2022/12/25 00:00:01;;;;;;;10.20;8.07;;;8.60;97.90;;;8.52;87.29;98180.53;5032254;28;20455;-79
2022/12/25 00:02:29;;;;;;;12.07;8.17;;;8.60;98.60;;;8.51;86.83;98179.72;5033078;28;20487;-81
2022/12/25 00:04:56;;;;;;;9.83;7.10;;;8.60;98.10;;;8.36;86.87;98172.53;5028535;28;20979;-77
2022/12/25 00:07:23;;;;;;;7.37;5.93;;;8.60;97.40;;;8.37;87.65;98167.97;5033757;28;20451;-81
2022/12/25 00:09:51;;;;;;;8.70;7.20;;;8.50;98.50;;;8.55;87.19;98163.97;5027062;28;20455;-80
2022/12/25 00:12:21;;;;;;;6.97;6.17;;;8.60;98.70;;;8.27;87.68;98162.13;5026235;28;20833;-80
2022/12/25 00:14:48;;;;;;;13.83;6.53;;;8.50;97.70;;;8.14;88.14;98158.31;5026603;28;20912;-79
2022/12/25 00:17:15;;;;;;;8.07;6.53;;;8.40;98.90;;;8.29;87.20;98165.47;5030916;28;20598;-78
2022/12/25 00:19:42;;;;;;;8.03;6.47;;;8.50;99.00;;;8.33;87.45;98161.34;5033607;28;20478;-77
2022/12/25 00:22:09;;;;;;;9.03;6.77;;;8.50;98.50;;;8.41;87.14;98169.22;5029504;28;20928;-79
2022/12/25 00:24:37;;;;;;;7.73;7.00;;;8.50;98.30;;;8.40;86.65;98161.38;5026972;28;20454;-80
2022/12/25 00:27:04;;;;;;;8.03;6.90;;;8.40;98.70;;;8.28;87.45;98169.19;5038164;28;20453;-79
2022/12/25 00:29:32;;;;;;;12.63;7.40;;;8.40;99.10;;;8.34;87.94;98165.69;5028607;28;20513;-77
2022/12/25 00:32:00;;;;;;;10.77;7.40;;;8.40;99.60;;;8.31;87.33;98158.00;5030335;28;20452;-79
2022/12/25 00:34:27;;;;;;;10.87;7.30;;;8.50;99.00;;;8.17;88.14;98146.31;5028978;28;20514;-79
2022/12/25 00:36:54;;;;;;;12.03;8.03;;;8.40;99.00;;;8.15;88.28;98154.59;5037686;28;20481;-77
2022/12/25 00:39:21;;;;;;;11.00;7.57;;;8.40;99.70;;;8.35;87.80;98162.81;5035254;28;20501;-81
2022/12/25 00:44:35;;;;;;;10.07;6.17;;;8.40;99.90;;;8.21;87.55;98164.56;5031442;28;20940;-79
2022/12/25 00:47:02;;;;;;;7.30;6.10;;;8.40;99.30;;;8.10;88.13;98162.41;5032763;28;20488;-78
2022/12/25 00:49:29;;;;;;;8.53;6.57;;;8.40;99.00;;;8.18;88.42;98162.28;5034243;28;20479;-79
2022/12/25 00:51:57;;;;;;;7.13;6.10;;;8.30;99.30;;;8.27;87.33;98156.75;5033973;28;20538;-79
2022/12/25 00:54:24;;;;;;;8.70;6.30;;;8.40;99.50;;;8.17;87.79;98154.38;5031975;28;20549;-77
2022/12/25 00:56:51;;;;;;;8.90;6.43;;;8.40;98.20;;;8.18;87.60;98159.56;5032533;28;20908;-78
2022/12/25 00:59:19;;;;;;;7.80;7.00;;;8.30;99.30;;;8.22;87.92;98158.16;5033933;28;20450;-77
2022/12/25 01:01:47;;;;;;;6.73;6.03;;;8.30;99.00;;;8.19;87.29;98155.84;5034111;28;20460;-78
2022/12/25 01:04:14;;;;;;;7.80;5.50;;;8.30;98.70;;;8.25;86.94;98153.41;5031997;28;20889;-79
2022/12/25 01:06:41;;;;;;;7.70;6.40;;;8.40;99.60;;;8.38;86.18;98166.13;5032973;28;20954;-79
2022/12/25 01:11:53;;;;;;;8.57;6.27;;;8.50;97.90;;;8.13;87.97;98178.19;5032727;28;20452;-77
2022/12/25 01:14:20;;;;;;;7.17;6.47;;;8.40;98.80;;;8.23;87.52;98194.81;5032775;28;21006;-79
2022/12/25 01:16:48;;;;;;;9.53;7.13;;;8.40;98.60;;;8.25;87.09;98193.78;5033704;28;20507;-76
2022/12/25 01:19:16;;;;;;;10.23;6.73;;;8.40;98.50;;;8.25;87.39;98180.31;5033705;28;20486;-79
2022/12/25 01:21:43;;;;;;;10.97;6.37;;;8.40;98.30;;;8.18;87.81;98181.09;5032685;28;20493;-79
2022/12/25 01:24:10;;;;;;;8.43;6.00;;;8.40;98.10;;;8.33;86.79;98178.31;5035338;28;20435;-79
2022/12/25 01:26:37;;;;;;;7.23;6.27;;;8.40;98.50;;;8.32;87.17;98186.59;5033775;28;20499;-80
2022/12/25 01:29:05;;;;;;;7.30;6.70;;;8.50;98.10;;;8.31;87.09;98185.75;5033944;28;20484;-80
2022/12/25 01:31:32;;;;;;;8.13;6.53;;;8.40;98.20;;;8.18;87.09;98175.72;5034011;28;20904;-79
2022/12/25 01:34:00;;;;;;;7.53;5.70;;;8.30;98.30;;;8.16;86.79;98183.16;5032277;28;20459;-81
2022/12/25 01:36:28;;;;;;;7.50;6.07;;;8.30;97.90;;;8.14;87.40;98179.84;5028372;28;20478;-78
2022/12/25 01:38:55;;;;;;;5.80;5.30;;;8.30;98.70;;;7.91;87.58;98180.91;5032944;28;20446;-80
2022/12/25 01:41:25;;;;;;;6.90;5.90;;;8.30;98.40;;;7.98;88.03;98177.44;5031745;28;20949;-79
2022/12/25 01:44:06;;;;;;;10.63;5.67;;;8.20;99.00;;;8.06;87.68;98180.81;5033112;28;20914;-79
2022/12/25 01:46:34;;;;;;;7.27;5.40;;;8.30;99.10;;;8.06;87.92;98183.50;5033662;28;20526;-79
2022/12/25 01:49:07;;;;;;;7.20;5.73;;;8.30;99.00;;;7.84;88.04;98171.94;5029878;28;20463;-79
2022/12/25 01:51:39;;;;;;;6.60;5.00;;;8.20;99.10;;;8.04;88.19;98182.03;5030925;28;20448;-74
2022/12/25 01:54:13;;;;;;;5.23;4.67;;;8.30;98.40;;;8.08;87.37;98181.47;5049542;28;20454;-76
2022/12/25 01:56:41;;;;;;;7.63;5.10;;;8.30;98.20;;;7.96;88.37;98182.16;5035311;28;20475;-78
2022/12/25 01:59:09;;;;;;;6.70;5.00;;;8.20;98.70;;;7.90;87.96;98178.41;5036667;28;20487;-78
2022/12/25 02:01:37;;;;;;;6.87;4.50;;;8.20;98.70;;;7.69;88.73;98179.28;5039404;28;20615;-78
2022/12/25 02:04:17;;;;;;;5.50;4.87;;;8.10;99.00;;;7.92;88.39;98177.19;5037781;28;20443;-78
2022/12/25 02:06:44;;;;;;;5.30;4.90;;;8.10;99.90;;;7.92;88.54;98173.66;5045690;28;20468;-73
2022/12/25 02:09:11;;;;;;;5.70;5.10;;;8.10;99.70;;;7.87;88.02;98171.56;5054015;28;20448;-72
2022/12/25 02:11:56;;;;;;;5.73;4.20;;;8.10;99.20;;;7.86;88.13;98172.59;5053713;28;20438;-72
2022/12/25 02:14:25;;;;;;;4.80;4.30;;;8.10;99.50;;;7.91;87.95;98175.50;5054184;28;20477;-77
2022/12/25 02:17:00;;;;;;;4.70;4.20;;;8.10;99.90;;;7.78;88.49;98175.41;5053024;28;20475;-73
2022/12/25 02:20:03;;;;;;;7.63;5.00;;;8.10;99.00;;;7.84;88.52;98182.72;5054454;28;20474;-75
2022/12/25 02:22:44;;;;;;;7.97;4.50;;;8.10;99.60;;;7.83;88.30;98183.75;5054247;28;20534;-75
2022/12/25 02:25:30;;;;;;;6.67;4.20;;;8.10;99.50;;;7.81;88.33;98183.09;5060426;28;20525;-72
2022/12/25 02:28:10;;;;;;;8.57;4.30;;;8.10;99.40;;;7.75;88.56;98183.84;5036402;28;20454;-74
2022/12/25 02:30:44;;;;;;;6.07;4.87;;;8.00;99.50;;;7.63;89.36;98184.38;5045604;28;20545;-79
2022/12/25 02:36:08;;;;;;;4.87;4.37;;;7.90;99.90;;;7.72;88.78;98173.50;5036940;28;20436;-77
2022/12/25 02:39:56;;;;;;;5.50;4.73;;;7.90;99.90;;;7.17;89.50;98109.47;5036567;28;20570;-80
2022/12/25 02:41:30;;;;;;;6.20;4.70;;;7.80;99.90;;;7.49;89.98;98185.25;5030800;28;20461;-80
2022/12/25 03:06:44;;;;;;;4.83;4.37;;;7.90;99.90;;;7.58;89.44;98168.00;5028136;28;20447;-80
2022/12/25 03:12:16;;;;;;;6.10;4.63;;;7.80;99.90;;;7.61;89.48;98172.97;5029202;28;20454;-76
2022/12/25 03:17:33;;;;;;;8.30;5.23;;;7.80;99.90;;;7.42;90.35;98154.81;5029927;28;20560;-78
2022/12/25 03:28:16;;;;;;;5.43;4.37;;;7.70;99.90;;;7.43;90.41;98151.09;5024818;28;20455;-77
2022/12/25 03:36:51;;;;;;;6.23;4.90;;;7.70;99.90;;;7.44;89.73;98145.53;5008787;28;20986;-76
2022/12/25 04:38:32;;;;;;;9.07;4.87;;;6.30;99.90;;;6.10;93.40;98136.66;5034427;28;20470;-77
2022/12/25 04:41:00;;;;;;;7.13;5.30;;;6.30;99.90;;;6.12;94.04;98156.09;5033566;28;20553;-77
2022/12/25 04:43:28;;;;;;;10.17;5.30;;;6.30;99.90;;;6.06;93.18;98163.00;5034084;28;20508;-78
2022/12/25 04:45:55;;;;;;;8.57;4.40;;;6.20;99.90;;;6.04;93.17;98164.22;5034055;28;20831;-78
2022/12/25 04:48:23;;;;;;;5.40;4.90;;;6.10;99.90;;;5.99;94.00;98166.59;5033395;28;20483;-78
2022/12/25 04:50:50;;;;;;;5.63;5.13;;;6.00;99.90;;;5.96;93.82;98173.16;5032872;28;20498;-78
2022/12/25 04:53:18;;;;;;;6.20;4.77;;;6.10;99.90;;;5.96;93.92;98160.56;5032861;28;20534;-77
2022/12/25 04:55:45;;;;;;;6.10;5.10;;;6.00;99.90;;;5.93;94.49;98163.63;5032526;28;20497;-77
2022/12/25 04:58:13;;;;;;;5.73;5.13;;;6.00;99.90;;;5.88;94.23;98166.03;5033672;28;20525;-77
2022/12/25 05:00:40;;;;;;;6.50;5.50;;;6.00;99.90;;;5.88;94.17;98166.03;5038796;28;20450;-78
2022/12/25 05:03:08;;;;;;;8.50;5.20;;;6.00;99.90;;;5.81;94.10;98149.81;5036906;28;20544;-77
2022/12/25 05:05:39;;;;;;;5.80;5.03;;;5.90;99.90;;;5.86;93.88;98151.97;5033611;28;20495;-79
2022/12/25 05:08:07;;;;;;;8.97;5.87;;;5.90;99.90;;;5.72;94.23;98160.81;5013042;28;20461;-79
2022/12/25 05:10:34;;;;;;;9.70;5.53;;;5.80;99.90;;;5.67;95.26;98148.75;5021821;28;20475;-78
2022/12/25 05:13:01;;;;;;;10.33;5.43;;;5.80;99.90;;;5.79;95.12;98161.75;5032060;28;20450;-78
2022/12/25 05:15:30;;;;;;;9.60;4.90;;;5.80;99.90;;;5.78;94.56;98154.72;5031760;28;20458;-78
2022/12/25 05:17:57;;;;;;;6.40;4.67;;;5.90;99.90;;;5.75;94.55;98150.53;5032677;28;20509;-79
2022/12/25 05:20:24;;;;;;;7.33;5.10;;;5.90;99.90;;;5.75;94.86;98139.00;5032304;28;20512;-78
2022/12/25 05:22:52;;;;;;;8.70;5.60;;;5.90;99.90;;;5.76;94.34;98146.03;5032374;28;20458;-78
2022/12/25 05:25:19;;;;;;;6.00;5.40;;;5.80;99.90;;;5.74;94.77;98151.56;5031983;28;20447;-77
2022/12/25 05:27:46;;;;;;;6.50;5.33;;;5.90;99.90;;;5.60;94.85;98142.47;5031873;28;20947;-77
2022/12/25 05:30:14;;;;;;;6.40;4.93;;;5.70;99.90;;;5.54;95.22;98153.91;5032229;28;20513;-75
2022/12/25 05:32:42;;;;;;;6.40;5.37;;;5.60;99.90;;;5.60;95.73;98137.09;5031557;28;20454;-77
2022/12/25 05:35:09;;;;;;;5.80;5.20;;;5.70;99.90;;;5.60;96.51;98134.44;5031369;28;20986;-76
2022/12/25 05:37:37;;;;;;;8.30;5.60;;;5.80;99.90;;;5.72;96.60;98134.81;5031675;28;20506;-77
2022/12/25 05:40:07;;;;;;;6.20;5.60;;;6.00;99.90;;;5.76;96.02;98135.28;5032150;28;20478;-77
2022/12/25 05:42:34;;;;;;;7.53;5.50;;;6.00;99.90;;;5.63;96.36;98123.34;5032309;28;20512;-78
2022/12/25 05:45:01;;;;;;;7.13;4.93;;;5.90;99.90;;;5.67;96.47;98121.13;5029810;28;20826;-78
2022/12/25 05:47:28;;;;;;;8.13;5.97;;;6.00;99.90;;;5.56;96.95;98130.44;5033101;28;20517;-78
2022/12/25 05:49:57;;;;;;;6.20;5.63;;;6.00;99.90;;;5.46;96.47;98103.91;5030173;28;20458;-78
2022/12/25 05:52:24;;;;;;;8.00;5.43;;;5.90;99.90;;;5.56;96.72;98119.72;5033049;28;20466;-75
2022/12/25 05:54:51;;;;;;;8.23;5.27;;;5.90;99.90;;;5.39;97.27;98114.50;5030661;28;20457;-77
2022/12/25 05:57:18;;;;;;;8.63;6.60;;;5.80;99.90;;;5.47;97.49;98110.06;5031465;28;20497;-77
2022/12/25 05:59:45;;;;;;;7.23;5.83;;;5.80;99.90;;;5.51;97.17;98116.72;5032948;28;20514;-77
2022/12/25 06:02:12;;;;;;;5.60;5.10;;;5.80;99.90;;;5.47;97.16;98116.28;5032897;28;20538;-75
2022/12/25 06:04:40;;;;;;;6.87;5.83;;;5.80;99.90;;;5.62;98.05;98119.00;5027309;28;21039;-78
2022/12/25 06:07:08;;;;;;;7.53;4.80;;;5.90;99.90;;;5.75;97.51;98122.91;5030795;28;20491;-79
2022/12/25 06:09:35;;;;;;;7.90;5.53;;;6.00;99.90;;;5.75;97.53;98128.28;5030239;28;20486;-78
2022/12/25 06:12:03;;;;;;;4.97;4.13;;;6.10;99.90;;;5.79;97.45;98118.84;5030969;28;20842;-75
2022/12/25 06:14:31;;;;;;;8.40;5.70;;;6.20;99.90;;;5.84;97.44;98123.66;5031515;28;20571;-79
2022/12/25 06:16:58;;;;;;;8.77;4.67;;;6.20;99.90;;;5.85;96.50;98107.41;5031907;28;20486;-79
2022/12/25 06:19:25;;;;;;;7.03;5.07;;;6.20;99.90;;;6.04;96.32;98126.69;5030172;28;20487;-78
2022/12/25 06:21:54;;;;;;;7.70;5.77;;;6.30;99.90;;;6.04;96.22;98126.69;5031843;28;20535;-79
2022/12/25 06:24:23;;;;;;;6.67;5.20;;;6.30;99.90;;;6.18;95.97;98133.06;5031551;28;20473;-78
2022/12/25 06:26:51;;;;;;;7.60;5.60;;;6.40;99.90;;;6.02;96.07;98129.53;5028989;28;20540;-79
2022/12/25 06:29:18;;;;;;;6.53;5.37;;;6.40;99.90;;;6.08;95.67;98136.03;5031196;28;20447;-78
2022/12/25 06:31:45;;;;;;;6.80;5.40;;;6.50;99.90;;;6.08;95.83;98134.19;5030945;28;20524;-77
2022/12/25 06:34:15;;;;;;;6.23;4.90;;;6.50;99.90;;;6.20;95.04;98131.03;5028545;28;20462;-77
2022/12/25 06:36:42;;;;;;;6.80;6.03;;;6.50;99.90;;;6.16;95.58;98117.16;5031004;28;20447;-76
2022/12/25 06:39:10;;;;;;;6.03;5.30;;;6.50;99.90;;;6.13;95.88;98114.00;5030958;28;20551;-79
2022/12/25 06:41:38;;;;;;;7.87;4.43;;;6.50;99.90;;;6.35;94.96;98115.75;5032202;28;20472;-79
2022/12/25 06:44:06;;;;;;;6.60;5.33;;;6.60;99.90;;;6.29;94.28;98108.47;5028933;28;20946;-79
2022/12/25 06:46:33;;;;;;;8.97;4.90;;;6.60;99.90;;;6.31;94.35;98122.53;5030463;28;20481;-78
2022/12/25 06:49:00;;;;;;;9.47;5.50;;;6.70;99.90;;;6.57;94.29;98123.91;5030311;28;20455;-78
2022/12/25 06:51:31;;;;;;;6.40;5.00;;;6.70;99.90;;;6.71;93.11;98127.56;5031862;28;20486;-78
2022/12/25 06:54:01;;;;;;;9.97;5.97;;;6.90;99.90;;;6.77;92.93;98126.84;5031453;28;20490;-76
2022/12/25 06:56:29;;;;;;;7.00;5.13;;;6.90;99.90;;;6.61;93.08;98138.59;5030498;28;21010;-77
2022/12/25 06:59:00;;;;;;;5.77;5.27;;;6.90;99.90;;;6.78;92.32;98131.19;5031671;28;20510;-78
2022/12/25 07:01:30;;;;;;;7.93;4.77;;;7.00;99.90;;;6.88;91.68;98132.72;5027738;28;20459;-80
2022/12/25 07:04:01;;;;;;;8.50;4.83;;;7.00;99.90;;;6.90;91.61;98136.91;5025493;28;20479;-79
2022/12/25 07:06:29;;;;;;;6.20;5.10;;;7.10;99.90;;;7.00;91.20;98141.97;5029862;28;20869;-79
2022/12/25 07:08:56;;;;;;;5.30;4.67;;;7.10;99.90;;;6.77;90.38;98077.66;5031473;28;20456;-81
2022/12/25 07:11:23;;;;;;;5.20;4.57;;;7.20;99.90;;;7.14;90.37;98142.13;5028600;28;20466;-78
2022/12/25 07:13:51;;;;;;;5.63;4.67;;;7.30;99.90;;;7.26;89.30;98129.84;5030077;28;20548;-81
2022/12/25 07:16:19;;;;;;;6.43;4.77;;;7.40;99.90;;;7.23;88.84;98130.22;5030793;28;20451;-79
2022/12/25 07:18:47;;;;;;;5.90;4.47;;;7.40;99.90;;;7.22;88.56;98140.13;5029399;28;20895;-80
2022/12/25 07:21:17;;;;;;;5.37;4.60;;;7.50;99.90;;;7.07;89.14;98140.19;5031314;28;20455;-78
2022/12/25 07:23:47;;;;;;;7.50;4.93;;;7.40;99.90;;;7.06;89.88;98145.75;5031645;28;20505;-79
2022/12/25 07:26:16;;;;;;;6.80;4.70;;;7.40;99.90;;;7.19;89.47;98155.81;5030620;28;20451;-80
2022/12/25 07:28:43;;;;;;;6.10;4.50;;;7.30;99.90;;;7.24;88.97;98158.78;5031441;28;20549;-79
2022/12/25 07:31:13;;;;;;;5.53;4.80;;;7.40;99.90;;;7.41;88.04;98145.91;5026541;28;22549;-78
2022/12/25 07:33:42;;;;;;;5.70;4.30;;;7.50;99.90;;;7.30;88.09;98141.88;5028247;28;20818;-77
2022/12/25 07:36:10;;;;;;;4.97;4.47;;;7.50;99.80;;;6.72;89.57;98086.28;5029301;28;20443;-80
2022/12/25 07:38:38;;;;;;;4.70;3.83;;;7.40;99.40;;;7.06;89.45;98145.75;5029053;28;20478;-79
2022/12/25 07:41:08;;;;;;;5.20;4.50;;;7.30;99.90;;;7.22;88.46;98156.25;5022215;28;20439;-80
2022/12/25 07:43:36;;;;;;;5.27;4.77;;;7.40;99.90;;;7.09;89.36;98151.59;5031130;28;20455;-80
2022/12/25 07:46:04;;;;;;;6.10;4.77;;;7.30;99.90;;;6.90;89.32;98136.06;5029078;28;20457;-80
2022/12/25 07:48:31;;;;;;;6.23;5.33;;;7.30;99.90;;;6.96;89.64;98135.31;5029054;28;20499;-79
2022/12/25 07:51:02;;;;;;;6.53;5.87;;;7.20;99.90;;;6.96;89.26;98135.31;5031249;28;20525;-80
2022/12/25 07:53:29;;;;;;;7.60;5.23;;;7.30;99.90;;;7.00;89.07;98122.34;5030984;28;20485;-80
2022/12/25 07:55:58;;;;;;;5.23;4.73;;;7.20;99.90;;;6.80;89.44;98121.09;5030666;28;20538;-80
2022/12/25 07:58:25;;;;;;;8.77;5.20;;;7.20;98.90;;;6.69;90.33;98113.50;5031587;28;20832;-78
2022/12/25 08:00:53;;;;;;;7.20;5.80;;;7.10;99.90;;;6.76;90.67;98109.06;5028098;28;20596;-81
2022/12/25 08:03:20;;;;;;;6.10;5.60;;;7.10;99.90;;;6.98;89.84;98119.00;5028407;28;20478;-80
2022/12/25 08:05:47;;;;;;;7.00;5.70;;;7.10;99.90;;;7.00;89.62;98108.91;5030705;28;20502;-78
2022/12/25 08:08:15;;;;;;;5.90;5.30;;;7.20;99.90;;;6.92;89.71;98124.09;5031774;28;20454;-79
2022/12/25 08:10:46;;;;;;;5.77;5.17;;;7.20;99.90;;;7.12;88.74;98118.09;5030694;28;20509;-80
2022/12/25 08:13:14;;;;;;;7.13;5.60;;;7.30;99.90;;;7.13;88.76;98127.88;5032068;28;20560;-78
2022/12/25 08:15:41;;;;;;;10.60;5.47;;;7.30;99.60;;;7.11;89.26;98126.38;5030768;28;20501;-78
2022/12/25 08:18:08;;;;;;;7.03;5.63;;;7.30;99.90;;;7.27;88.47;98126.13;5026207;28;20555;-79
2022/12/25 08:20:35;;;;;;;10.90;6.30;;;7.40;98.80;;;7.28;88.35;98125.09;5030840;28;20984;-79
2022/12/25 08:23:04;;;;;;;6.00;5.40;;;7.50;99.00;;;7.29;88.04;98120.56;5030946;28;20446;-79
2022/12/25 08:25:33;;;;;;;6.60;6.00;;;7.50;98.80;;;7.29;87.81;98113.31;5029918;28;20923;-81
2022/12/25 08:28:01;;;;;;;6.63;5.47;;;7.60;97.80;;;7.42;87.17;98111.78;5029818;28;21336;-79
2022/12/25 08:30:28;;;;;;;8.23;6.37;;;7.60;97.80;;;7.42;87.48;98109.09;5031021;28;20543;-80
2022/12/25 08:32:55;;;;;;;6.77;6.00;;;7.70;97.50;;;7.39;87.54;98096.88;5030024;28;20495;-81
2022/12/25 08:35:23;;;;;;;8.23;6.30;;;7.70;97.50;;;7.21;88.23;98089.28;5029928;28;20526;-75
2022/12/25 08:37:50;;;;;;;7.20;5.80;;;7.60;97.40;;;7.36;87.90;98083.81;5030644;28;20448;-81
2022/12/25 08:40:18;;;;;;;7.13;6.30;;;7.60;98.30;;;7.66;87.05;98091.72;5031050;28;20943;-76
2022/12/25 08:42:47;;;;;;;8.97;5.87;;;7.70;98.30;;;7.57;86.77;98087.50;5031001;28;20454;-79
2022/12/25 08:45:14;;;;;;;9.10;6.63;;;7.80;96.80;;;7.48;88.10;98092.19;5030028;28;20467;-79
2022/12/25 08:47:41;;;;;;;7.10;6.17;;;7.70;97.30;;;7.53;87.17;98086.25;5026439;28;20891;-79
2022/12/25 08:50:09;;;;;;;7.23;6.03;;;7.80;97.40;;;7.73;86.55;98097.16;5030886;28;20491;-81
2022/12/25 08:52:37;;;;;;;9.07;6.60;;;7.90;97.00;;;7.82;86.21;98100.53;5030731;28;20453;-80
2022/12/25 08:55:04;;;;;;;7.80;6.70;;;8.00;96.10;;;7.90;85.91;98108.47;5026333;28;20849;-81
2022/12/25 08:57:31;;;;;;;8.80;7.47;;;8.10;95.60;;;7.83;85.01;98062.69;5031060;28;20458;-77
2022/12/25 09:00:00;;;;;;;8.80;6.43;;;8.20;95.90;;;8.49;83.13;98119.78;5033253;28;20513;-79
2022/12/25 09:02:27;;;;;;;9.43;6.80;;;8.40;94.50;;;8.43;83.26;98112.50;5031775;28;20459;-81
2022/12/25 09:04:55;;;;;;;7.27;6.57;;;8.50;94.10;;;8.43;83.37;98124.13;5033126;28;20523;-82
2022/12/25 09:07:22;;;;;;;7.80;6.97;;;8.60;93.60;;;8.70;83.09;98115.38;5033617;28;20855;-78
2022/12/25 09:09:49;;;;;;;9.77;7.67;;;8.70;93.50;;;8.65;82.80;98110.56;5037253;28;20457;-78
2022/12/25 09:12:16;;;;;;;9.63;8.00;;;8.80;93.10;;;8.57;83.26;98092.72;5043143;28;20864;-78
2022/12/25 09:14:43;;;;;;;9.90;6.53;;;8.80;92.80;;;8.89;82.45;98100.31;5049364;28;20450;-77
2022/12/25 09:17:12;;;;;;;6.73;5.30;;;8.90;92.80;;;8.98;81.41;98096.38;5051599;28;20436;-74
2022/12/25 09:19:39;;;;;;;6.20;5.60;;;9.00;92.40;;;9.03;81.55;98103.84;5052354;28;20458;-76
2022/12/25 09:22:06;;;;;;;8.50;5.47;;;9.10;92.10;;;9.35;80.29;98096.88;5056280;28;20437;-77
2022/12/25 09:24:33;;;;;;;6.90;5.23;;;9.30;91.80;;;9.45;79.52;98123.44;5056383;28;20939;-74
2022/12/25 09:27:01;;;;;;;6.00;4.80;;;9.50;91.30;;;9.46;80.16;98122.41;5055982;28;20481;-75
2022/12/25 09:29:28;;;;;;;5.43;4.30;;;9.50;91.10;;;9.58;78.75;98132.59;5040395;28;20454;-79
2022/12/25 09:31:55;;;;;;;6.23;4.10;;;9.60;90.60;;;9.66;78.82;98120.78;5033369;28;20498;-78
2022/12/25 09:34:23;;;;;;;6.07;3.60;;;9.70;90.50;;;9.39;80.12;98120.75;5034751;28;20443;-80
2022/12/25 09:36:50;;;;;;;4.20;3.17;;;9.70;90.40;;;9.37;79.77;98129.03;5033857;28;20506;-82
2022/12/25 09:39:17;;;;;;;3.50;3.00;;;9.70;90.60;;;9.46;79.47;98135.03;5033633;28;20507;-78
2022/12/25 09:41:55;;;;;;;3.40;3.10;;;9.70;90.60;;;9.19;81.31;98111.56;5033912;28;20469;-79
2022/12/25 09:44:27;;;;;;;3.90;2.97;;;9.50;90.70;;;9.45;80.32;98109.13;5031891;28;20536;-81
2022/12/25 09:46:59;;;;;;;4.97;3.27;;;9.60;90.80;;;9.25;81.06;98115.31;5030006;28;20935;-78
2022/12/25 09:49:37;;;;;;;3.30;2.80;;;9.60;90.60;;;9.72;79.37;98103.75;5031498;28;20949;-81
2022/12/25 09:52:10;;;;;;;4.20;3.00;;;9.80;90.60;;;9.73;78.80;98103.53;5023683;28;20980;-81
2022/12/25 09:54:49;;;;;;;3.70;3.40;;;9.90;89.90;;;9.61;78.95;98097.91;5032218;28;20546;-78
2022/12/25 09:57:16;;;;;;;3.87;3.13;;;9.80;90.10;;;9.61;78.57;98097.91;5031764;28;20454;-79
2022/12/25 09:59:46;;;;;;;3.43;2.97;;;9.80;89.80;;;9.53;78.69;98084.66;5032891;28;20492;-80
2022/12/25 10:02:59;;;;;;;4.90;3.13;;;9.80;89.90;;;9.85;78.66;98081.31;5029812;28;20948;-79
2022/12/25 10:06:02;;;;;;;6.07;4.00;;;9.90;89.90;;;9.94;77.45;98063.88;5019636;28;21007;-80
2022/12/25 10:08:53;;;;;;;3.90;3.27;;;10.00;88.40;;;10.06;76.49;98061.34;5033162;28;20477;-80
2022/12/25 10:11:34;;;;;;;3.30;3.00;;;10.20;88.00;;;10.00;77.43;98040.59;5031047;28;20967;-80
2022/12/25 10:14:17;;;;;;;4.00;3.20;;;10.20;87.30;;;10.18;76.13;98035.34;5029650;28;20481;-77
2022/12/25 10:16:53;;;;;;;3.20;2.90;;;10.30;87.10;;;10.39;76.07;98028.03;5031783;28;20465;-79
2022/12/25 10:19:37;;;;;;;5.93;3.27;;;10.40;86.90;;;10.38;75.97;98004.75;5031165;28;20466;-80
2022/12/25 10:22:12;;;;;;;5.43;3.10;;;10.60;86.60;;;10.49;75.30;97992.50;5031184;28;20465;-81
2022/12/25 10:24:46;;;;;;;4.00;2.93;;;10.70;86.30;;;10.43;75.43;97980.66;5028416;28;20497;-78
2022/12/25 10:27:20;;;;;;;3.20;2.90;;;10.70;86.20;;;10.62;75.20;97962.69;5029166;28;20555;-82
2022/12/25 10:29:53;;;;;;;5.70;5.03;;;10.80;86.00;;;10.61;74.83;97965.59;5030951;28;20497;-81
2022/12/25 10:32:22;;;;;;;5.03;4.00;;;10.80;85.50;;;10.63;74.42;97968.91;5029436;28;20995;-79
2022/12/25 10:34:49;;;;;;;3.30;3.00;;;10.80;85.60;;;10.29;75.52;97968.25;5029674;28;20439;-81
2022/12/25 10:37:18;;;;;;;5.53;2.57;;;10.70;85.40;;;10.05;75.80;97984.09;5032202;28;20529;-83
2022/12/25 10:39:45;;;;;;;3.83;2.73;;;10.50;85.70;;;10.31;75.75;97991.28;5030163;28;20532;-81
2022/12/25 10:42:33;;;;;;;4.23;3.17;;;10.50;86.00;;;10.39;75.50;97992.91;5032030;28;20549;-80
2022/12/25 10:45:03;;;;;;;5.70;3.50;;;10.50;86.00;;;10.36;75.32;98006.84;5030059;28;20538;-75
2022/12/25 10:47:33;;;;;;;3.47;2.50;;;10.50;85.90;;;10.05;76.12;97990.34;5028475;28;20528;-80
2022/12/25 10:50:08;;;;;;;3.50;2.80;;;10.40;86.00;;;10.19;76.05;98014.59;5026493;28;20458;-80
2022/12/25 10:52:49;;;;;;;2.80;2.60;;;10.40;86.30;;;10.26;76.22;98022.69;5030944;28;20495;-80
2022/12/25 10:55:19;;;;;;;4.00;2.50;;;10.50;86.10;;;10.53;74.73;98011.78;5024774;28;20513;-81
2022/12/25 10:57:47;;;;;;;3.07;2.83;;;10.70;85.80;;;10.60;74.97;98018.00;5031665;28;20531;-80
2022/12/25 11:00:22;;;;;;;2.93;2.70;;;10.80;85.70;;;10.66;74.84;98011.72;5032206;28;20505;-82
2022/12/25 11:02:50;;;;;;;3.57;2.53;;;10.90;85.40;;;10.84;73.70;98010.16;5027224;28;20458;-78
2022/12/25 11:05:28;;;;;;;3.63;3.33;;;11.00;85.00;;;10.48;75.05;98004.34;5031159;28;20544;-80
2022/12/25 11:07:58;;;;;;;2.87;2.67;;;10.90;84.70;;;10.69;74.51;97999.66;5031830;28;20452;-78
2022/12/25 11:10:31;;;;;;;2.90;2.60;;;10.90;85.00;;;10.89;73.77;98000.34;5029721;28;20456;-80
2022/12/25 11:12:59;;;;;;;2.63;2.43;;;11.10;84.80;;;10.97;73.55;98012.78;5030472;28;20508;-81
2022/12/25 11:15:37;;;;;;;3.83;2.90;;;11.10;84.60;;;10.90;73.27;98009.28;5031257;28;20455;-80
2022/12/25 11:18:18;;;;;;;4.97;2.83;;;11.20;84.50;;;11.23;72.55;98000.13;5026952;28;20491;-80
2022/12/25 11:20:49;;;;;;;3.23;2.37;;;11.20;84.50;;;11.19;71.92;97988.91;5030418;28;20467;-80
2022/12/25 11:23:21;;;;;;;3.63;2.83;;;11.40;84.10;;;11.17;72.11;97973.97;5031636;28;20444;-79
2022/12/25 11:25:57;;;;;;;3.50;2.83;;;11.40;83.90;;;11.09;72.47;97960.72;5030021;28;20480;-80
2022/12/25 11:28:25;;;;;;;3.23;2.70;;;11.30;83.90;;;11.41;71.69;97966.06;5033596;28;20449;-78
2022/12/25 11:30:59;;;;;;;3.37;2.30;;;11.50;84.00;;;11.41;71.28;97963.34;5034118;28;20501;-81
2022/12/25 11:33:35;;;;;;;2.83;2.63;;;11.50;83.60;;;11.52;70.88;97954.50;5035934;28;20486;-78
2022/12/25 11:36:12;;;;;;;3.20;2.90;;;11.70;83.30;;;11.48;70.97;97956.00;5035407;28;20443;-81
2022/12/25 11:38:41;;;;;;;3.70;2.60;;;11.70;83.30;;;11.48;71.25;97945.19;5036634;28;20495;-80
2022/12/25 11:41:12;;;;;;;2.93;2.60;;;11.60;83.30;;;11.32;71.40;97944.72;5034194;28;20494;-78
2022/12/25 11:43:47;;;;;;;3.37;3.03;;;11.60;83.30;;;11.30;72.06;97936.00;5036044;28;20504;-77
2022/12/25 11:46:20;;;;;;;2.73;2.53;;;11.50;83.40;;;11.03;72.45;97914.59;5039864;28;20469;-80
2022/12/25 11:48:55;;;;;;;2.90;2.30;;;11.40;83.50;;;11.25;72.04;97930.41;5050422;28;20436;-78
2022/12/25 11:51:23;;;;;;;3.60;2.40;;;11.40;83.70;;;11.23;72.20;97934.41;5050627;28;20554;-77
2022/12/25 11:53:54;;;;;;;2.90;2.67;;;11.40;83.70;;;11.37;71.79;97926.97;5049246;28;20455;-77
2022/12/25 11:56:24;;;;;;;3.30;3.00;;;11.50;83.50;;;11.60;71.47;97913.63;5050398;28;20466;-81
2022/12/25 11:58:54;;;;;;;3.00;2.70;;;11.60;83.70;;;11.73;70.37;97911.81;5049446;28;20450;-81
2022/12/25 12:01:31;;;;;;;7.27;2.67;;;11.80;83.30;;;11.66;70.86;97917.31;5047606;28;20862;-76
2022/12/25 12:04:00;;;;;;;2.83;2.53;;;11.80;83.30;;;11.75;70.48;97926.78;5047404;28;20456;-79
2022/12/25 12:06:36;;;;;;;3.03;2.60;;;11.90;83.10;;;11.63;71.15;97925.88;5048950;28;20447;-77
2022/12/25 12:09:23;;;;;;;2.97;2.67;;;11.80;83.30;;;11.53;71.62;97917.47;5052424;28;20452;-79
2022/12/25 12:11:58;;;;;;;3.60;2.67;;;11.70;83.40;;;11.40;71.27;97900.31;5048250;28;20491;-78
2022/12/25 12:14:44;;;;;;;5.07;2.43;;;11.70;83.30;;;11.86;70.29;97900.84;5050914;28;20457;-77
2022/12/25 12:17:13;;;;;;;3.97;2.43;;;11.90;83.40;;;11.17;71.63;97857.69;5050823;28;20461;-79
2022/12/25 12:19:40;;;;;;;2.90;2.63;;;11.80;83.20;;;11.37;71.93;97902.63;5045765;28;20535;-81
2022/12/25 12:22:19;;;;;;;2.87;2.67;;;11.60;83.40;;;11.09;73.24;97895.81;5046857;28;20450;-77
2022/12/25 12:24:55;;;;;;;2.10;1.90;;;11.40;84.00;;;11.10;73.94;97892.06;5046243;28;20455;-78
2022/12/25 12:27:27;;;;;;;2.90;2.60;;;11.30;84.00;;;11.59;72.01;97889.50;5050649;28;20433;-77
2022/12/25 12:29:57;;;;;;;2.20;2.00;;;11.50;84.20;;;11.53;71.99;97888.53;5048346;28;20473;-76
2022/12/25 12:32:39;;;;;;;2.20;2.00;;;11.70;83.90;;;11.39;72.33;97876.19;5041446;28;20451;-81